Alberta, Virginia
Current Conditions -  °F | °C
As of 3:35 PM on Sunday 23 Nov 2014 (Local Time) from KLVL Reporting Station
Broken Clouds Broken Clouds  
Wind Chill: 54°   Ceiling: 4200
Heat Index: 54°   Visibility: 10mi
Dew Point: 48°   Wind: 5mph
Humidity: 80%   Direction: 80°E
Pressure: 30.07"   Gusts: NA
Location:  36.87°N, 77.89°W
Report Text: KLVL 232035Z AUTO 08004KT 10SM SCT036 BKN042 BKN049 12/09 A3007 RMK AO1 T01200087
Loading
Personal Weather Stations






























Interactive Weather Map New forecast layout! Learn more

10-Day Weather Forecast

Advertisements
Track Severe Weather on mobile